sensor_id;sensor_type;location;lat;lon;timestamp;temperature;humidity
51950;DHT22;37974;53.218;6.640;2022-11-20T00:02:02;-0.80;99.90
51950;DHT22;37974;53.218;6.640;2022-11-20T00:04:27;-0.10;99.90
51950;DHT22;37974;53.218;6.640;2022-11-20T00:06:53;-0.90;99.90
51950;DHT22;37974;53.218;6.640;2022-11-20T00:09:19;-0.80;99.90
51950;DHT22;37974;53.218;6.640;2022-11-20T00:11:44;-0.70;99.90
51950;DHT22;37974;53.218;6.640;2022-11-20T00:14:10;-0.10;99.90
51950;DHT22;37974;53.218;6.640;2022-11-20T00:16:36;0.80;99.90
51950;DHT22;37974;53.218;6.640;2022-11-20T00:19:02;-0.40;99.90
51950;DHT22;37974;53.218;6.640;2022-11-20T00:21:28;-0.40;99.90
51950;DHT22;37974;53.218;6.640;2022-11-20T00:23:56;-0.60;99.90
51950;DHT22;37974;53.218;6.640;2022-11-20T00:26:24;0.80;99.90
51950;DHT22;37974;53.218;6.640;2022-11-20T00:28:53;0.90;99.90
51950;DHT22;37974;53.218;6.640;2022-11-20T00:31:19;-0.30;99.90
51950;DHT22;37974;53.218;6.640;2022-11-20T00:33:45;-0.50;99.90
51950;DHT22;37974;53.218;6.640;2022-11-20T00:36:14;-0.50;99.90
51950;DHT22;37974;53.218;6.640;2022-11-20T00:38:41;0.80;99.90
51950;DHT22;37974;53.218;6.640;2022-11-20T00:41:08;-0.10;99.90
51950;DHT22;37974;53.218;6.640;2022-11-20T00:43:35;0.40;99.90
51950;DHT22;37974;53.218;6.640;2022-11-20T00:46:02;-0.40;99.90
51950;DHT22;37974;53.218;6.640;2022-11-20T00:48:29;-0.20;99.90
51950;DHT22;37974;53.218;6.640;2022-11-20T00:50:55;-0.10;99.90
51950;DHT22;37974;53.218;6.640;2022-11-20T00:53:21;-0.40;99.90
51950;DHT22;37974;53.218;6.640;2022-11-20T00:55:56;-0.30;99.90
51950;DHT22;37974;53.218;6.640;2022-11-20T00:58:23;-0.30;99.90
51950;DHT22;37974;53.218;6.640;2022-11-20T01:00:49;0.80;99.90
51950;DHT22;37974;53.218;6.640;2022-11-20T01:03:16;-0.30;99.90
51950;DHT22;37974;53.218;6.640;2022-11-20T01:05:42;-0.10;99.90
51950;DHT22;37974;53.218;6.640;2022-11-20T01:08:07;0.60;99.90
51950;DHT22;37974;53.218;6.640;2022-11-20T01:10:33;-0.50;99.90
51950;DHT22;37974;53.218;6.640;2022-11-20T01:12:59;-0.40;99.90
51950;DHT22;37974;53.218;6.640;2022-11-20T01:15:43;0.10;99.90
51950;DHT22;37974;53.218;6.640;2022-11-20T01:18:08;-0.20;99.90
51950;DHT22;37974;53.218;6.640;2022-11-20T01:20:35;-0.20;99.90
51950;DHT22;37974;53.218;6.640;2022-11-20T01:23:02;-0.10;99.90
51950;DHT22;37974;53.218;6.640;2022-11-20T01:25:28;0.20;99.90
51950;DHT22;37974;53.218;6.640;2022-11-20T01:27:54;0.50;99.90
51950;DHT22;37974;53.218;6.640;2022-11-20T01:30:19;-0.40;99.90
51950;DHT22;37974;53.218;6.640;2022-11-20T01:32:45;0.10;99.90
51950;DHT22;37974;53.218;6.640;2022-11-20T01:35:11;-0.30;99.90
51950;DHT22;37974;53.218;6.640;2022-11-20T01:37:36;0.20;99.90
51950;DHT22;37974;53.218;6.640;2022-11-20T01:40:03;0.40;99.90
51950;DHT22;37974;53.218;6.640;2022-11-20T01:42:28;-0.10;99.90
51950;DHT22;37974;53.218;6.640;2022-11-20T01:48:13;-0.10;99.90
51950;DHT22;37974;53.218;6.640;2022-11-20T01:50:40;-0.10;99.90
51950;DHT22;37974;53.218;6.640;2022-11-20T01:53:10;1.20;99.90
51950;DHT22;37974;53.218;6.640;2022-11-20T01:55:41;-0.10;99.90
51950;DHT22;37974;53.218;6.640;2022-11-20T01:58:09;0.30;99.90
51950;DHT22;37974;53.218;6.640;2022-11-20T02:00:35;1.10;99.90
51950;DHT22;37974;53.218;6.640;2022-11-20T02:03:05;0.60;99.90
51950;DHT22;37974;53.218;6.640;2022-11-20T02:05:38;0.00;99.90
51950;DHT22;37974;53.218;6.640;2022-11-20T02:08:07;-0.40;99.90
51950;DHT22;37974;53.218;6.640;2022-11-20T02:10:33;0.60;99.90
51950;DHT22;37974;53.218;6.640;2022-11-20T02:12:59;0.80;99.90
51950;DHT22;37974;53.218;6.640;2022-11-20T02:15:43;0.00;99.90
51950;DHT22;37974;53.218;6.640;2022-11-20T02:18:10;1.00;99.90
51950;DHT22;37974;53.218;6.640;2022-11-20T02:20:37;-0.10;99.90
51950;DHT22;37974;53.218;6.640;2022-11-20T02:23:11;1.10;99.90
51950;DHT22;37974;53.218;6.640;2022-11-20T02:25:37;0.10;99.90
51950;DHT22;37974;53.218;6.640;2022-11-20T02:28:04;-0.10;99.90
51950;DHT22;37974;53.218;6.640;2022-11-20T02:30:30;0.80;99.90
51950;DHT22;37974;53.218;6.640;2022-11-20T02:32:57;0.40;99.90
51950;DHT22;37974;53.218;6.640;2022-11-20T02:37:53;1.20;99.90
51950;DHT22;37974;53.218;6.640;2022-11-20T02:40:19;0.50;99.90
51950;DHT22;37974;53.218;6.640;2022-11-20T02:42:44;0.80;99.90
51950;DHT22;37974;53.218;6.640;2022-11-20T02:45:10;0.10;99.90
51950;DHT22;37974;53.218;6.640;2022-11-20T02:47:36;0.10;99.90
51950;DHT22;37974;53.218;6.640;2022-11-20T02:50:03;0.10;99.90
51950;DHT22;37974;53.218;6.640;2022-11-20T02:52:29;0.20;99.90
51950;DHT22;37974;53.218;6.640;2022-11-20T02:54:55;0.10;99.90
51950;DHT22;37974;53.218;6.640;2022-11-20T02:57:21;0.20;99.90
51950;DHT22;37974;53.218;6.640;2022-11-20T02:59:47;1.30;99.90
51950;DHT22;37974;53.218;6.640;2022-11-20T03:02:12;1.50;99.90
51950;DHT22;37974;53.218;6.640;2022-11-20T03:04:38;0.00;99.90
51950;DHT22;37974;53.218;6.640;2022-11-20T03:07:04;-0.20;99.90
51950;DHT22;37974;53.218;6.640;2022-11-20T03:09:29;0.10;99.90
51950;DHT22;37974;53.218;6.640;2022-11-20T03:11:55;0.20;99.90
51950;DHT22;37974;53.218;6.640;2022-11-20T03:14:21;1.40;99.90
51950;DHT22;37974;53.218;6.640;2022-11-20T03:16:46;0.10;99.90
51950;DHT22;37974;53.218;6.640;2022-11-20T03:19:12;0.50;99.90
51950;DHT22;37974;53.218;6.640;2022-11-20T03:21:39;0.60;99.90
51950;DHT22;37974;53.218;6.640;2022-11-20T03:24:05;0.00;99.90
51950;DHT22;37974;53.218;6.640;2022-11-20T03:26:31;0.10;99.90
51950;DHT22;37974;53.218;6.640;2022-11-20T03:28:59;1.00;99.90
51950;DHT22;37974;53.218;6.640;2022-11-20T03:31:28;0.10;99.90
51950;DHT22;37974;53.218;6.640;2022-11-20T03:33:55;0.80;99.90
51950;DHT22;37974;53.218;6.640;2022-11-20T03:36:21;0.60;99.90
51950;DHT22;37974;53.218;6.640;2022-11-20T03:38:47;0.70;99.90
51950;DHT22;37974;53.218;6.640;2022-11-20T03:41:16;0.00;99.90
51950;DHT22;37974;53.218;6.640;2022-11-20T03:43:48;0.10;99.90
51950;DHT22;37974;53.218;6.640;2022-11-20T03:46:14;0.20;99.90
51950;DHT22;37974;53.218;6.640;2022-11-20T03:48:39;1.10;99.90
51950;DHT22;37974;53.218;6.640;2022-11-20T03:51:09;1.50;99.90
51950;DHT22;37974;53.218;6.640;2022-11-20T03:53:35;0.10;99.90
51950;DHT22;37974;53.218;6.640;2022-11-20T03:56:00;0.10;99.90
51950;DHT22;37974;53.218;6.640;2022-11-20T03:58:26;-0.20;99.90
51950;DHT22;37974;53.218;6.640;2022-11-20T04:00:52;0.40;99.90
51950;DHT22;37974;53.218;6.640;2022-11-20T04:03:20;0.70;99.90
51950;DHT22;37974;53.218;6.640;2022-11-20T04:05:45;0.80;99.90
51950;DHT22;37974;53.218;6.640;2022-11-20T04:08:11;0.90;99.90
51950;DHT22;37974;53.218;6.640;2022-11-20T04:10:37;-0.30;99.90
51950;DHT22;37974;53.218;6.640;2022-11-20T04:13:03;1.10;99.90
51950;DHT22;37974;53.218;6.640;2022-11-20T04:15:29;0.20;99.90
51950;DHT22;37974;53.218;6.640;2022-11-20T04:17:55;0.40;99.90
51950;DHT22;37974;53.218;6.640;2022-11-20T04:20:21;0.00;99.90
51950;DHT22;37974;53.218;6.640;2022-11-20T04:22:47;0.50;99.90
51950;DHT22;37974;53.218;6.640;2022-11-20T04:25:12;1.00;99.90
51950;DHT22;37974;53.218;6.640;2022-11-20T04:27:38;1.10;99.90
51950;DHT22;37974;53.218;6.640;2022-11-20T04:30:04;1.20;99.90
51950;DHT22;37974;53.218;6.640;2022-11-20T04:32:30;0.20;99.90
51950;DHT22;37974;53.218;6.640;2022-11-20T04:34:55;0.00;99.90
51950;DHT22;37974;53.218;6.640;2022-11-20T04:37:21;0.70;99.90
51950;DHT22;37974;53.218;6.640;2022-11-20T04:39:47;2.20;99.90
51950;DHT22;37974;53.218;6.640;2022-11-20T04:42:12;0.10;99.90
51950;DHT22;37974;53.218;6.640;2022-11-20T04:44:55;1.00;99.90
51950;DHT22;37974;53.218;6.640;2022-11-20T04:47:21;0.40;99.90
51950;DHT22;37974;53.218;6.640;2022-11-20T04:49:47;0.70;99.90
51950;DHT22;37974;53.218;6.640;2022-11-20T04:52:13;0.10;99.90
51950;DHT22;37974;53.218;6.640;2022-11-20T04:54:39;0.70;99.90
51950;DHT22;37974;53.218;6.640;2022-11-20T04:57:04;0.10;99.90
51950;DHT22;37974;53.218;6.640;2022-11-20T04:59:30;1.70;99.90
51950;DHT22;37974;53.218;6.640;2022-11-20T05:01:56;0.30;99.90
51950;DHT22;37974;53.218;6.640;2022-11-20T05:04:21;0.20;99.90
51950;DHT22;37974;53.218;6.640;2022-11-20T05:06:47;0.20;99.90
51950;DHT22;37974;53.218;6.640;2022-11-20T05:09:14;0.20;99.90
51950;DHT22;37974;53.218;6.640;2022-11-20T05:11:40;0.10;99.90
51950;DHT22;37974;53.218;6.640;2022-11-20T05:14:06;0.20;99.90
51950;DHT22;37974;53.218;6.640;2022-11-20T05:16:34;1.60;99.90
51950;DHT22;37974;53.218;6.640;2022-11-20T05:19:00;1.50;99.90
51950;DHT22;37974;53.218;6.640;2022-11-20T05:21:25;0.30;99.90
51950;DHT22;37974;53.218;6.640;2022-11-20T05:23:51;0.40;99.90
51950;DHT22;37974;53.218;6.640;2022-11-20T05:26:20;1.00;99.90
51950;DHT22;37974;53.218;6.640;2022-11-20T05:28:48;1.10;99.90
51950;DHT22;37974;53.218;6.640;2022-11-20T05:31:16;0.20;99.90
51950;DHT22;37974;53.218;6.640;2022-11-20T05:33:44;-0.20;99.90
51950;DHT22;37974;53.218;6.640;2022-11-20T05:36:11;0.90;99.90
51950;DHT22;37974;53.218;6.640;2022-11-20T05:38:38;0.20;99.90
51950;DHT22;37974;53.218;6.640;2022-11-20T05:41:14;0.50;99.90
51950;DHT22;37974;53.218;6.640;2022-11-20T05:43:42;0.20;99.90
51950;DHT22;37974;53.218;6.640;2022-11-20T05:46:12;1.20;99.90
51950;DHT22;37974;53.218;6.640;2022-11-20T05:48:39;1.20;99.90
51950;DHT22;37974;53.218;6.640;2022-11-20T05:51:07;0.10;99.90
51950;DHT22;37974;53.218;6.640;2022-11-20T05:53:34;0.50;99.90
51950;DHT22;37974;53.218;6.640;2022-11-20T05:56:02;0.20;99.90
51950;DHT22;37974;53.218;6.640;2022-11-20T05:58:28;1.40;99.90
51950;DHT22;37974;53.218;6.640;2022-11-20T06:00:54;1.20;99.90
51950;DHT22;37974;53.218;6.640;2022-11-20T06:03:20;0.70;99.90
51950;DHT22;37974;53.218;6.640;2022-11-20T06:05:46;0.30;99.90
51950;DHT22;37974;53.218;6.640;2022-11-20T06:08:12;0.60;99.90
51950;DHT22;37974;53.218;6.640;2022-11-20T06:10:38;0.20;99.90
51950;DHT22;37974;53.218;6.640;2022-11-20T06:13:03;1.40;99.90
51950;DHT22;37974;53.218;6.640;2022-11-20T06:15:29;0.20;99.90
51950;DHT22;37974;53.218;6.640;2022-11-20T06:17:55;1.20;99.90
51950;DHT22;37974;53.218;6.640;2022-11-20T06:20:21;0.20;99.90
51950;DHT22;37974;53.218;6.640;2022-11-20T06:22:47;1.40;99.90
51950;DHT22;37974;53.218;6.640;2022-11-20T06:25:13;1.00;99.90
51950;DHT22;37974;53.218;6.640;2022-11-20T06:27:39;0.30;99.90
51950;DHT22;37974;53.218;6.640;2022-11-20T06:30:05;0.70;99.90
51950;DHT22;37974;53.218;6.640;2022-11-20T06:32:32;0.20;99.90
51950;DHT22;37974;53.218;6.640;2022-11-20T06:34:58;0.30;99.90
51950;DHT22;37974;53.218;6.640;2022-11-20T06:37:24;0.20;99.90
51950;DHT22;37974;53.218;6.640;2022-11-20T06:39:49;0.20;99.90
51950;DHT22;37974;53.218;6.640;2022-11-20T06:42:15;1.10;99.90
51950;DHT22;37974;53.218;6.640;2022-11-20T06:44:41;0.20;99.90
51950;DHT22;37974;53.218;6.640;2022-11-20T06:47:06;2.60;99.90
51950;DHT22;37974;53.218;6.640;2022-11-20T06:49:32;0.90;99.90
51950;DHT22;37974;53.218;6.640;2022-11-20T06:51:59;1.10;99.90
51950;DHT22;37974;53.218;6.640;2022-11-20T06:54:25;0.20;99.90
51950;DHT22;37974;53.218;6.640;2022-11-20T06:56:51;0.30;99.90
51950;DHT22;37974;53.218;6.640;2022-11-20T06:59:16;0.70;99.90
51950;DHT22;37974;53.218;6.640;2022-11-20T07:01:42;0.30;99.90
51950;DHT22;37974;53.218;6.640;2022-11-20T07:04:08;0.90;99.90
51950;DHT22;37974;53.218;6.640;2022-11-20T07:06:33;0.30;99.90
51950;DHT22;37974;53.218;6.640;2022-11-20T07:08:59;1.10;99.90
51950;DHT22;37974;53.218;6.640;2022-11-20T07:11:25;0.20;99.90
51950;DHT22;37974;53.218;6.640;2022-11-20T07:13:50;1.40;99.90
51950;DHT22;37974;53.218;6.640;2022-11-20T07:16:16;0.40;99.90
51950;DHT22;37974;53.218;6.640;2022-11-20T07:18:42;0.40;99.90
51950;DHT22;37974;53.218;6.640;2022-11-20T07:21:09;1.60;99.90
51950;DHT22;37974;53.218;6.640;2022-11-20T07:23:36;0.50;99.90
51950;DHT22;37974;53.218;6.640;2022-11-20T07:26:05;1.30;99.90
51950;DHT22;37974;53.218;6.640;2022-11-20T07:28:31;0.40;99.90
51950;DHT22;37974;53.218;6.640;2022-11-20T07:30:57;0.50;99.90
51950;DHT22;37974;53.218;6.640;2022-11-20T07:33:23;0.70;99.90
51950;DHT22;37974;53.218;6.640;2022-11-20T07:35:48;1.50;99.90
51950;DHT22;37974;53.218;6.640;2022-11-20T07:38:14;0.40;99.90
51950;DHT22;37974;53.218;6.640;2022-11-20T07:40:40;0.40;99.90
51950;DHT22;37974;53.218;6.640;2022-11-20T07:43:06;0.50;99.90
51950;DHT22;37974;53.218;6.640;2022-11-20T07:45:32;0.20;99.90
51950;DHT22;37974;53.218;6.640;2022-11-20T07:47:58;1.20;99.90
51950;DHT22;37974;53.218;6.640;2022-11-20T07:50:23;0.50;99.90
51950;DHT22;37974;53.218;6.640;2022-11-20T07:52:49;1.20;99.90
51950;DHT22;37974;53.218;6.640;2022-11-20T07:55:16;1.80;99.90
51950;DHT22;37974;53.218;6.640;2022-11-20T07:57:41;1.10;99.90
51950;DHT22;37974;53.218;6.640;2022-11-20T08:00:09;0.40;99.90
51950;DHT22;37974;53.218;6.640;2022-11-20T08:02:41;0.60;99.90
51950;DHT22;37974;53.218;6.640;2022-11-20T08:05:08;0.60;99.90
51950;DHT22;37974;53.218;6.640;2022-11-20T08:07:39;0.70;99.90
51950;DHT22;37974;53.218;6.640;2022-11-20T08:10:06;0.60;99.90
51950;DHT22;37974;53.218;6.640;2022-11-20T08:12:32;0.60;99.90
51950;DHT22;37974;53.218;6.640;2022-11-20T08:15:16;1.90;99.90
51950;DHT22;37974;53.218;6.640;2022-11-20T08:17:42;0.80;99.90
51950;DHT22;37974;53.218;6.640;2022-11-20T08:20:08;2.00;99.90
51950;DHT22;37974;53.218;6.640;2022-11-20T08:22:34;0.80;99.90
51950;DHT22;37974;53.218;6.640;2022-11-20T08:25:00;-0.10;99.90
51950;DHT22;37974;53.218;6.640;2022-11-20T08:27:26;0.80;99.90
51950;DHT22;37974;53.218;6.640;2022-11-20T08:29:51;2.20;99.90
51950;DHT22;37974;53.218;6.640;2022-11-20T08:32:17;2.20;99.90
51950;DHT22;37974;53.218;6.640;2022-11-20T08:34:43;0.90;99.90
51950;DHT22;37974;53.218;6.640;2022-11-20T08:37:08;0.60;99.90
51950;DHT22;37974;53.218;6.640;2022-11-20T08:39:34;1.00;99.90
51950;DHT22;37974;53.218;6.640;2022-11-20T08:42:00;1.40;99.90
51950;DHT22;37974;53.218;6.640;2022-11-20T08:44:26;1.80;99.90
51950;DHT22;37974;53.218;6.640;2022-11-20T08:46:51;1.10;99.90
51950;DHT22;37974;53.218;6.640;2022-11-20T08:49:17;1.30;99.90
51950;DHT22;37974;53.218;6.640;2022-11-20T08:51:43;1.50;99.90
51950;DHT22;37974;53.218;6.640;2022-11-20T08:54:09;1.20;99.90
51950;DHT22;37974;53.218;6.640;2022-11-20T08:56:37;1.80;99.90
51950;DHT22;37974;53.218;6.640;2022-11-20T08:59:03;1.30;99.90
51950;DHT22;37974;53.218;6.640;2022-11-20T09:01:29;1.30;99.90
51950;DHT22;37974;53.218;6.640;2022-11-20T09:03:56;1.30;99.90
51950;DHT22;37974;53.218;6.640;2022-11-20T09:06:22;2.40;99.90
51950;DHT22;37974;53.218;6.640;2022-11-20T09:08:52;1.40;99.90
51950;DHT22;37974;53.218;6.640;2022-11-20T09:11:18;2.10;99.90
51950;DHT22;37974;53.218;6.640;2022-11-20T09:13:43;1.40;99.90
51950;DHT22;37974;53.218;6.640;2022-11-20T09:16:09;2.20;99.90
51950;DHT22;37974;53.218;6.640;2022-11-20T09:18:36;1.80;99.90
51950;DHT22;37974;53.218;6.640;2022-11-20T09:21:15;1.70;99.90
51950;DHT22;37974;53.218;6.640;2022-11-20T09:23:41;2.70;99.90
51950;DHT22;37974;53.218;6.640;2022-11-20T09:26:10;2.20;99.90
51950;DHT22;37974;53.218;6.640;2022-11-20T09:28:36;2.70;99.90
51950;DHT22;37974;53.218;6.640;2022-11-20T09:31:06;1.30;99.90
51950;DHT22;37974;53.218;6.640;2022-11-20T09:33:32;1.40;99.90
51950;DHT22;37974;53.218;6.640;2022-11-20T09:36:01;2.50;99.90
51950;DHT22;37974;53.218;6.640;2022-11-20T09:38:27;1.40;99.90
51950;DHT22;37974;53.218;6.640;2022-11-20T09:41:04;2.60;99.90
51950;DHT22;37974;53.218;6.640;2022-11-20T09:46:06;1.40;99.90
51950;DHT22;37974;53.218;6.640;2022-11-20T09:48:42;1.40;99.90
51950;DHT22;37974;53.218;6.640;2022-11-20T09:51:23;0.60;99.90
51950;DHT22;37974;53.218;6.640;2022-11-20T09:54:17;1.40;99.90
51950;DHT22;37974;53.218;6.640;2022-11-20T09:56:46;1.50;99.90
51950;DHT22;37974;53.218;6.640;2022-11-20T09:59:32;2.80;99.90
51950;DHT22;37974;53.218;6.640;2022-11-20T10:02:00;1.60;99.90
51950;DHT22;37974;53.218;6.640;2022-11-20T10:04:43;1.60;99.90
51950;DHT22;37974;53.218;6.640;2022-11-20T10:07:20;2.90;99.90
51950;DHT22;37974;53.218;6.640;2022-11-20T10:09:54;1.60;99.90
51950;DHT22;37974;53.218;6.640;2022-11-20T10:13:02;1.70;99.90
51950;DHT22;37974;53.218;6.640;2022-11-20T10:15:56;1.70;99.90
51950;DHT22;37974;53.218;6.640;2022-11-20T10:18:48;1.80;99.90
51950;DHT22;37974;53.218;6.640;2022-11-20T10:21:46;1.70;99.90
51950;DHT22;37974;53.218;6.640;2022-11-20T10:32:52;2.00;99.90
51950;DHT22;37974;53.218;6.640;2022-11-20T10:35:23;1.90;99.90
51950;DHT22;37974;53.218;6.640;2022-11-20T10:38:20;2.00;99.90
51950;DHT22;37974;53.218;6.640;2022-11-20T10:40:52;2.00;99.90
51950;DHT22;37974;53.218;6.640;2022-11-20T10:43:38;2.60;99.90
51950;DHT22;37974;53.218;6.640;2022-11-20T10:46:23;2.00;99.90
51950;DHT22;37974;53.218;6.640;2022-11-20T10:49:00;2.10;99.90
51950;DHT22;37974;53.218;6.640;2022-11-20T10:51:40;2.10;99.90
51950;DHT22;37974;53.218;6.640;2022-11-20T10:54:27;2.20;99.90
51950;DHT22;37974;53.218;6.640;2022-11-20T10:57:10;2.30;99.90
51950;DHT22;37974;53.218;6.640;2022-11-20T10:59:58;2.30;99.90
51950;DHT22;37974;53.218;6.640;2022-11-20T11:05:23;3.60;99.90
51950;DHT22;37974;53.218;6.640;2022-11-20T11:07:57;2.50;99.90
51950;DHT22;37974;53.218;6.640;2022-11-20T11:10:45;2.80;99.90
51950;DHT22;37974;53.218;6.640;2022-11-20T11:13:20;1.90;99.90
51950;DHT22;37974;53.218;6.640;2022-11-20T11:15:46;2.20;99.90
51950;DHT22;37974;53.218;6.640;2022-11-20T11:18:29;2.60;99.90
51950;DHT22;37974;53.218;6.640;2022-11-20T11:21:01;3.40;99.90
51950;DHT22;37974;53.218;6.640;2022-11-20T11:23:38;2.60;99.90
51950;DHT22;37974;53.218;6.640;2022-11-20T11:26:23;2.70;99.90
51950;DHT22;37974;53.218;6.640;2022-11-20T11:28:56;2.60;99.90
51950;DHT22;37974;53.218;6.640;2022-11-20T11:31:25;2.40;99.90
51950;DHT22;37974;53.218;6.640;2022-11-20T11:33:51;2.60;99.90
51950;DHT22;37974;53.218;6.640;2022-11-20T11:36:22;2.10;99.90
51950;DHT22;37974;53.218;6.640;2022-11-20T11:38:51;2.80;99.90
51950;DHT22;37974;53.218;6.640;2022-11-20T11:41:26;3.40;99.90
51950;DHT22;37974;53.218;6.640;2022-11-20T11:44:12;2.30;99.90
51950;DHT22;37974;53.218;6.640;2022-11-20T11:46:59;2.30;99.90
51950;DHT22;37974;53.218;6.640;2022-11-20T11:49:27;2.40;99.90
51950;DHT22;37974;53.218;6.640;2022-11-20T11:52:15;2.20;99.90
51950;DHT22;37974;53.218;6.640;2022-11-20T11:54:48;2.20;99.90
51950;DHT22;37974;53.218;6.640;2022-11-20T11:57:23;2.50;99.90
51950;DHT22;37974;53.218;6.640;2022-11-20T12:00:02;2.10;99.90
51950;DHT22;37974;53.218;6.640;2022-11-20T12:02:53;3.30;99.90
51950;DHT22;37974;53.218;6.640;2022-11-20T12:05:27;2.00;99.90
51950;DHT22;37974;53.218;6.640;2022-11-20T12:08:02;2.10;99.90
51950;DHT22;37974;53.218;6.640;2022-11-20T12:10:39;2.10;99.90
51950;DHT22;37974;53.218;6.640;2022-11-20T12:13:32;2.10;99.90
51950;DHT22;37974;53.218;6.640;2022-11-20T12:16:01;2.20;99.90
51950;DHT22;37974;53.218;6.640;2022-11-20T12:18:28;2.30;99.90
51950;DHT22;37974;53.218;6.640;2022-11-20T12:23:53;3.60;99.90
51950;DHT22;37974;53.218;6.640;2022-11-20T12:26:54;2.60;99.90
51950;DHT22;37974;53.218;6.640;2022-11-20T12:29:37;2.70;99.90
51950;DHT22;37974;53.218;6.640;2022-11-20T12:37:38;3.10;99.90
51950;DHT22;37974;53.218;6.640;2022-11-20T12:40:26;3.20;99.90
51950;DHT22;37974;53.218;6.640;2022-11-20T12:43:04;3.30;99.90
51950;DHT22;37974;53.218;6.640;2022-11-20T12:46:07;3.40;99.90
51950;DHT22;37974;53.218;6.640;2022-11-20T12:48:42;3.50;99.90
51950;DHT22;37974;53.218;6.640;2022-11-20T12:51:19;3.50;99.90
51950;DHT22;37974;53.218;6.640;2022-11-20T12:56:44;3.50;99.90
51950;DHT22;37974;53.218;6.640;2022-11-20T12:59:21;3.50;99.90
51950;DHT22;37974;53.218;6.640;2022-11-20T13:02:19;3.40;99.90
51950;DHT22;37974;53.218;6.640;2022-11-20T13:04:55;3.30;99.90
51950;DHT22;37974;53.218;6.640;2022-11-20T13:07:30;3.30;99.90
51950;DHT22;37974;53.218;6.640;2022-11-20T13:09:59;4.10;99.90
51950;DHT22;37974;53.218;6.640;2022-11-20T13:12:34;4.20;99.90
51950;DHT22;37974;53.218;6.640;2022-11-20T13:15:18;3.30;99.90
51950;DHT22;37974;53.218;6.640;2022-11-20T13:17:54;3.30;99.90
51950;DHT22;37974;53.218;6.640;2022-11-20T13:20:21;3.30;99.90
51950;DHT22;37974;53.218;6.640;2022-11-20T13:22:49;4.40;99.90
51950;DHT22;37974;53.218;6.640;2022-11-20T13:25:29;3.20;99.90
51950;DHT22;37974;53.218;6.640;2022-11-20T13:27:57;3.30;99.90
51950;DHT22;37974;53.218;6.640;2022-11-20T13:30:26;3.30;99.90
51950;DHT22;37974;53.218;6.640;2022-11-20T13:32:56;3.40;99.90
51950;DHT22;37974;53.218;6.640;2022-11-20T13:35:27;3.80;99.90
51950;DHT22;37974;53.218;6.640;2022-11-20T13:40:27;3.30;99.90
51950;DHT22;37974;53.218;6.640;2022-11-20T13:42:55;3.30;99.90
51950;DHT22;37974;53.218;6.640;2022-11-20T13:45:27;3.30;99.90
51950;DHT22;37974;53.218;6.640;2022-11-20T13:47:54;3.30;99.90
51950;DHT22;37974;53.218;6.640;2022-11-20T13:50:37;3.20;99.90
51950;DHT22;37974;53.218;6.640;2022-11-20T13:53:34;3.20;99.90
51950;DHT22;37974;53.218;6.640;2022-11-20T13:56:43;3.20;99.90
51950;DHT22;37974;53.218;6.640;2022-11-20T14:01:38;3.00;99.90
51950;DHT22;37974;53.218;6.640;2022-11-20T14:04:08;3.00;99.90
51950;DHT22;37974;53.218;6.640;2022-11-20T14:06:41;3.00;99.90
51950;DHT22;37974;53.218;6.640;2022-11-20T14:09:12;3.30;99.90
51950;DHT22;37974;53.218;6.640;2022-11-20T14:11:46;3.00;99.90
51950;DHT22;37974;53.218;6.640;2022-11-20T14:16:41;2.90;99.90
51950;DHT22;37974;53.218;6.640;2022-11-20T14:19:27;2.90;99.90
51950;DHT22;37974;53.218;6.640;2022-11-20T14:24:32;3.40;99.90
51950;DHT22;37974;53.218;6.640;2022-11-20T14:27:01;2.90;99.90
51950;DHT22;37974;53.218;6.640;2022-11-20T14:29:34;2.90;99.90
51950;DHT22;37974;53.218;6.640;2022-11-20T14:32:03;2.80;99.90
51950;DHT22;37974;53.218;6.640;2022-11-20T14:34:32;2.80;99.90
51950;DHT22;37974;53.218;6.640;2022-11-20T14:37:04;2.80;99.90
51950;DHT22;37974;53.218;6.640;2022-11-20T14:39:36;2.70;99.90
51950;DHT22;37974;53.218;6.640;2022-11-20T14:42:03;2.70;99.90
51950;DHT22;37974;53.218;6.640;2022-11-20T14:44:40;2.70;99.90
51950;DHT22;37974;53.218;6.640;2022-11-20T14:47:08;2.60;99.90
51950;DHT22;37974;53.218;6.640;2022-11-20T14:49:37;3.00;99.90
51950;DHT22;37974;53.218;6.640;2022-11-20T14:52:14;2.50;99.90
51950;DHT22;37974;53.218;6.640;2022-11-20T14:54:45;3.60;99.90
51950;DHT22;37974;53.218;6.640;2022-11-20T14:57:28;2.40;99.90
51950;DHT22;37974;53.218;6.640;2022-11-20T15:00:05;2.40;99.90
51950;DHT22;37974;53.218;6.640;2022-11-20T15:02:31;2.20;99.90
51950;DHT22;37974;53.218;6.640;2022-11-20T15:04:58;2.20;99.90
51950;DHT22;37974;53.218;6.640;2022-11-20T15:07:27;2.40;99.90
51950;DHT22;37974;53.218;6.640;2022-11-20T15:10:01;2.20;99.90
51950;DHT22;37974;53.218;6.640;2022-11-20T15:12:29;3.10;99.90
51950;DHT22;37974;53.218;6.640;2022-11-20T15:14:55;2.10;99.90
51950;DHT22;37974;53.218;6.640;2022-11-20T15:17:21;2.70;99.90
51950;DHT22;37974;53.218;6.640;2022-11-20T15:19:46;2.00;99.90
51950;DHT22;37974;53.218;6.640;2022-11-20T15:22:12;2.00;99.90
51950;DHT22;37974;53.218;6.640;2022-11-20T15:24:39;2.70;99.90
51950;DHT22;37974;53.218;6.640;2022-11-20T15:27:05;1.90;99.90
51950;DHT22;37974;53.218;6.640;2022-11-20T15:29:31;1.90;99.90
51950;DHT22;37974;53.218;6.640;2022-11-20T15:31:57;1.80;99.90
51950;DHT22;37974;53.218;6.640;2022-11-20T15:34:22;1.70;99.90
51950;DHT22;37974;53.218;6.640;2022-11-20T15:36:48;1.70;99.90
51950;DHT22;37974;53.218;6.640;2022-11-20T15:39:14;1.60;99.90
51950;DHT22;37974;53.218;6.640;2022-11-20T15:41:40;1.60;99.90
51950;DHT22;37974;53.218;6.640;2022-11-20T15:44:06;2.50;99.90
51950;DHT22;37974;53.218;6.640;2022-11-20T15:46:36;1.50;99.90
51950;DHT22;37974;53.218;6.640;2022-11-20T15:49:04;0.90;99.90
51950;DHT22;37974;53.218;6.640;2022-11-20T15:51:34;1.50;99.90
51950;DHT22;37974;53.218;6.640;2022-11-20T15:54:00;1.50;99.90
51950;DHT22;37974;53.218;6.640;2022-11-20T15:56:27;1.50;99.90
51950;DHT22;37974;53.218;6.640;2022-11-20T15:58:53;2.00;99.90
51950;DHT22;37974;53.218;6.640;2022-11-20T16:01:21;1.50;99.90
51950;DHT22;37974;53.218;6.640;2022-11-20T16:03:48;1.50;99.90
51950;DHT22;37974;53.218;6.640;2022-11-20T16:06:14;1.50;99.90
51950;DHT22;37974;53.218;6.640;2022-11-20T16:08:41;1.50;99.90
51950;DHT22;37974;53.218;6.640;2022-11-20T16:11:10;1.70;99.90
51950;DHT22;37974;53.218;6.640;2022-11-20T16:13:37;1.50;99.90
51950;DHT22;37974;53.218;6.640;2022-11-20T16:16:23;1.50;99.90
51950;DHT22;37974;53.218;6.640;2022-11-20T16:18:49;2.40;99.90
51950;DHT22;37974;53.218;6.640;2022-11-20T16:21:15;1.50;99.90
51950;DHT22;37974;53.218;6.640;2022-11-20T16:23:42;2.10;99.90
51950;DHT22;37974;53.218;6.640;2022-11-20T16:26:10;1.50;99.90
51950;DHT22;37974;53.218;6.640;2022-11-20T16:28:36;1.30;99.90
51950;DHT22;37974;53.218;6.640;2022-11-20T16:31:11;1.30;99.90
51950;DHT22;37974;53.218;6.640;2022-11-20T16:33:37;1.50;99.90
51950;DHT22;37974;53.218;6.640;2022-11-20T16:36:10;1.50;99.90
51950;DHT22;37974;53.218;6.640;2022-11-20T16:38:36;1.50;99.90
51950;DHT22;37974;53.218;6.640;2022-11-20T16:41:10;1.50;99.90
51950;DHT22;37974;53.218;6.640;2022-11-20T16:43:51;1.40;99.90